Airport View

Enter AWOS ICAO identifier for current METAR.

ex. KFNL

KONO 202253Z AUTO 04004KT 10SM CLR 19/03 A3002 RMK AO2 SLP161 T01890033

20 Oct 2020 23:15

Frequency: 135.275

Phone: 541-889-7388

Other Area AWOS: KEUL - KMAN - KBOI - KBKE

TAF KBOI 201720Z 2018/2118 31008KT P6SM SCT080 BKN200 FM210300 VRB05KT P6SM SCT080 BKN200 FM211000 14005KT P6SM BKN060